Terminal Aerodrome Forecast
Issued by NWS Medford, OR

Home | Current Version | Previous Version | Text Only | Print | Product List | Glossary On
Versions: 1 2 3 4 5 6 7 8 9 10 11 12 13 14 15 16 17 18 19 20 21 22
000
FTUS46 KMFR 250542
TAFMFR
TAF
KMFR 250542Z 2506/2606 28004KT P6SM -SHRA SCT035 OVC050
     FM250800 29003KT P6SM -SHRA BKN025 OVC035
     FM251400 VRB03KT 5SM BR VCSH SCT005 OVC020
     FM251900 32005KT P6SM FEW025 BKN040 OVC070=

USA.gov is the U.S. government's official web portal to all federal, state and local government web resources and services.